OEFEL LSZG-LFTZ
Flight info
| Callsign | OEFEL |
|---|---|
| Flight time | N/A |
| Altitude | 13000 |
| Route | FRIBU DCT ESOKO DCT VEVAR |
| Aircraft | DA42/L-SDFGRY/C |
Departure
| Time | 2026-04-11 11:26 |
|---|---|
| Airport | Grenchen Airfield (LSZG) |
Arrival
| Time | N/A |
|---|---|
| Airport | La Môle Airport (LFTZ) |
| Time | Latitude | Longitude | Altitude | Speed | Heading |
|---|---|---|---|---|---|
| 2026-04-11 11:05 | 47.18155 | 7.41181 | 1412 ft | 0 kts | 66° |
| 2026-04-11 11:22 | 47.18166 | 7.41217 | 1415 ft | 8 kts | 66° |
| 2026-04-11 11:22 | 47.18161 | 7.41308 | 1413 ft | 10 kts | 72° |
| 2026-04-11 11:22 | 47.18193 | 7.41409 | 1414 ft | 13 kts | 65° |
| 2026-04-11 11:22 | 47.18214 | 7.41482 | 1414 ft | 9 kts | 69° |
| 2026-04-11 11:23 | 47.18247 | 7.41586 | 1411 ft | 14 kts | 66° |
| 2026-04-11 11:23 | 47.18270 | 7.41743 | 1406 ft | 20 kts | 110° |
| 2026-04-11 11:23 | 47.18239 | 7.41894 | 1404 ft | 0 kts | 104° |
| 2026-04-11 11:23 | 47.18238 | 7.41897 | 1404 ft | 2 kts | 105° |
| 2026-04-11 11:24 | 47.18243 | 7.41973 | 1407 ft | 13 kts | 58° |
| 2026-04-11 11:24 | 47.18285 | 7.42117 | 1408 ft | 16 kts | 70° |
| 2026-04-11 11:24 | 47.18338 | 7.42262 | 1403 ft | 16 kts | 53° |
| 2026-04-11 11:24 | 47.18331 | 7.42284 | 1406 ft | 0 kts | 256° |
| 2026-04-11 11:25 | 47.18274 | 7.42095 | 1407 ft | 51 kts | 245° |
| 2026-04-11 11:26 | 47.18063 | 7.41400 | 1459 ft | 89 kts | 242° |
| 2026-04-11 11:26 | 47.17762 | 7.40616 | 1832 ft | 93 kts | 238° |
| 2026-04-11 11:26 | 47.17369 | 7.39746 | 2017 ft | 115 kts | 235° |
| 2026-04-11 11:26 | 47.16881 | 7.38668 | 2076 ft | 136 kts | 237° |
| 2026-04-11 11:27 | 47.16366 | 7.37434 | 2196 ft | 146 kts | 239° |
| 2026-04-11 11:27 | 47.15863 | 7.36111 | 2334 ft | 150 kts | 242° |
| 2026-04-11 11:27 | 47.15391 | 7.34731 | 2481 ft | 152 kts | 244° |
| 2026-04-11 11:27 | 47.14725 | 7.33566 | 2610 ft | 153 kts | 210° |
| 2026-04-11 11:28 | 47.13683 | 7.33414 | 2751 ft | 155 kts | 169° |
| 2026-04-11 11:28 | 47.12654 | 7.33882 | 2875 ft | 155 kts | 163° |
| 2026-04-11 11:28 | 47.11633 | 7.34400 | 3108 ft | 155 kts | 164° |
| 2026-04-11 11:28 | 47.10626 | 7.34939 | 3268 ft | 154 kts | 163° |
| 2026-04-11 11:29 | 47.08635 | 7.35273 | 3721 ft | 145 kts | 209° |
| 2026-04-11 11:29 | 47.07731 | 7.34629 | 3920 ft | 145 kts | 205° |
| 2026-04-11 11:29 | 47.06772 | 7.34140 | 4174 ft | 143 kts | 201° |
| 2026-04-11 11:30 | 47.05877 | 7.33771 | 4644 ft | 129 kts | 201° |
| 2026-04-11 11:30 | 47.05015 | 7.33409 | 4892 ft | 129 kts | 201° |
| 2026-04-11 11:30 | 47.04142 | 7.33059 | 5179 ft | 128 kts | 201° |
| 2026-04-11 11:30 | 47.03307 | 7.32726 | 5529 ft | 120 kts | 202° |
| 2026-04-11 11:31 | 47.02513 | 7.32403 | 5913 ft | 116 kts | 202° |
| 2026-04-11 11:31 | 47.01729 | 7.32076 | 6277 ft | 116 kts | 202° |
| 2026-04-11 11:31 | 47.00958 | 7.31763 | 6640 ft | 113 kts | 203° |
| 2026-04-11 11:31 | 47.00212 | 7.31461 | 6991 ft | 108 kts | 203° |
| 2026-04-11 11:32 | 46.99491 | 7.31168 | 7357 ft | 109 kts | 203° |
| 2026-04-11 11:32 | 46.98742 | 7.30859 | 7721 ft | 114 kts | 203° |
| 2026-04-11 11:32 | 46.97986 | 7.30539 | 8091 ft | 114 kts | 203° |
| 2026-04-11 11:32 | 46.97213 | 7.30232 | 8467 ft | 117 kts | 202° |
| 2026-04-11 11:33 | 46.96447 | 7.29926 | 8839 ft | 115 kts | 202° |
| 2026-04-11 11:33 | 46.95677 | 7.29614 | 9223 ft | 114 kts | 203° |
| 2026-04-11 11:33 | 46.94921 | 7.29306 | 9598 ft | 111 kts | 203° |